createdAt,value
2022-10-01T00:02:09.790Z,97741.02
2022-10-01T00:04:38.217Z,97739.85
2022-10-01T00:07:10.629Z,97740.65
2022-10-01T00:09:38.975Z,97739.48
2022-10-01T00:12:07.356Z,97738.22
2022-10-01T00:14:38.694Z,97736.60
2022-10-01T00:17:06.625Z,97737.25
2022-10-01T00:19:34.626Z,97736.70
2022-10-01T00:22:02.697Z,97732.59
2022-10-01T00:24:30.633Z,97736.06
2022-10-01T00:26:59.155Z,97739.57
2022-10-01T00:29:27.496Z,97738.36
2022-10-01T00:31:55.776Z,97734.95
2022-10-01T00:34:24.944Z,97736.41
2022-10-01T00:36:52.858Z,97732.98
2022-10-01T00:39:20.950Z,97733.45
2022-10-01T00:41:49.974Z,97733.18
2022-10-01T00:44:32.357Z,97726.89
2022-10-01T00:47:16.177Z,97725.86
2022-10-01T00:49:47.294Z,97725.36
2022-10-01T00:52:20.972Z,97729.39
2022-10-01T00:54:53.897Z,97729.20
2022-10-01T00:57:25.345Z,97719.52
2022-10-01T00:59:57.153Z,97717.55
2022-10-01T01:02:25.232Z,97718.88
2022-10-01T01:04:53.359Z,97715.75
2022-10-01T01:07:22.482Z,97713.30
2022-10-01T01:09:53.706Z,97707.48
2022-10-01T01:12:51.118Z,97705.86
2022-10-01T01:15:46.388Z,97701.11
2022-10-01T01:18:28.220Z,97699.00
2022-10-01T01:21:25.152Z,97706.17
2022-10-01T01:23:53.108Z,97696.70
2022-10-01T01:26:42.419Z,97701.09
2022-10-01T01:29:27.375Z,97705.63
2022-10-01T01:32:01.200Z,97705.61
2022-10-01T01:34:33.454Z,97705.11
2022-10-01T01:37:12.130Z,97705.87
2022-10-01T01:39:46.258Z,97708.66
2022-10-01T01:42:21.592Z,97710.85
2022-10-01T01:44:51.852Z,97708.38
2022-10-01T01:47:24.138Z,97707.20
2022-10-01T01:49:53.438Z,97706.80
2022-10-01T01:52:21.423Z,97707.15
2022-10-01T01:54:51.388Z,97705.21
2022-10-01T01:57:20.617Z,97702.20
2022-10-01T01:59:49.111Z,97702.58
2022-10-01T02:02:29.461Z,97704.00
2022-10-01T02:05:03.595Z,97702.95
2022-10-01T02:07:39.889Z,97703.77
2022-10-01T02:10:46.592Z,97708.23
2022-10-01T02:13:39.609Z,97710.73
2022-10-01T02:16:23.917Z,97709.89
2022-10-01T02:19:06.466Z,97706.98
2022-10-01T02:22:08.725Z,97705.98
2022-10-01T02:24:48.791Z,97709.52
2022-10-01T02:27:30.506Z,97712.38
2022-10-01T02:30:03.720Z,97717.11
2022-10-01T02:32:32.652Z,97713.83
2022-10-01T02:35:03.042Z,97707.77
2022-10-01T02:37:31.144Z,97709.14
2022-10-01T02:40:01.565Z,97714.61
2022-10-01T02:42:31.390Z,97718.83
2022-10-01T02:45:02.843Z,97722.64
2022-10-01T02:47:34.495Z,97718.24
2022-10-01T02:50:05.030Z,97718.26
2022-10-01T02:52:36.148Z,97722.30
2022-10-01T02:55:10.806Z,97724.67
2022-10-01T02:57:39.970Z,97719.11
2022-10-01T03:00:14.615Z,97717.03
2022-10-01T03:02:43.025Z,97709.29
2022-10-01T03:05:11.241Z,97701.51
2022-10-01T03:07:41.111Z,97702.14
2022-10-01T03:10:11.312Z,97705.09
2022-10-01T03:12:45.523Z,97705.38
2022-10-01T03:15:16.658Z,97706.25
2022-10-01T03:17:45.270Z,97705.55
2022-10-01T03:20:13.615Z,97705.58
2022-10-01T03:22:44.441Z,97709.08
2022-10-01T03:25:13.096Z,97705.04
2022-10-01T03:27:41.426Z,97706.42
2022-10-01T03:30:10.961Z,97710.96
2022-10-01T03:32:39.208Z,97711.95
2022-10-01T03:35:07.814Z,97710.14
2022-10-01T03:37:36.092Z,97711.64
2022-10-01T03:40:05.080Z,97713.48
2022-10-01T03:42:33.309Z,97710.08
2022-10-01T03:45:01.425Z,97709.36
2022-10-01T03:47:29.502Z,97708.31
2022-10-01T03:49:57.791Z,97705.35
2022-10-01T03:52:25.930Z,97705.88
2022-10-01T03:54:54.353Z,97703.06
2022-10-01T03:57:22.496Z,97706.34
2022-10-01T03:59:50.693Z,97709.70
2022-10-01T04:02:19.633Z,97714.55
2022-10-01T04:04:47.943Z,97713.04
2022-10-01T04:07:16.268Z,97709.01
2022-10-01T04:09:44.309Z,97709.88
2022-10-01T04:12:12.696Z,97706.08
2022-10-01T04:14:40.708Z,97713.13
2022-10-01T04:17:08.981Z,97711.52
2022-10-01T04:19:36.972Z,97715.35
2022-10-01T04:22:05.056Z,97720.48
2022-10-01T04:24:33.061Z,97719.73
2022-10-01T04:27:01.116Z,97724.91
2022-10-01T04:29:29.349Z,97726.10
2022-10-01T04:31:58.382Z,97723.85
2022-10-01T04:34:46.555Z,97725.11
2022-10-01T04:37:14.582Z,97731.66
2022-10-01T04:39:42.622Z,97735.39
2022-10-01T04:42:10.817Z,97739.28
2022-10-01T04:44:38.711Z,97735.85
2022-10-01T04:47:07.868Z,97734.88
2022-10-01T04:49:36.266Z,97737.39
2022-10-01T04:52:04.917Z,97742.25
2022-10-01T04:54:33.117Z,97741.32
2022-10-01T04:57:01.255Z,97743.74
2022-10-01T04:59:29.399Z,97745.17
2022-10-01T05:01:57.671Z,97752.61
2022-10-01T05:04:27.436Z,97759.17
2022-10-01T05:06:56.263Z,97760.13
2022-10-01T05:09:24.481Z,97767.65
2022-10-01T05:11:52.677Z,97779.68
2022-10-01T05:14:21.460Z,97771.59
2022-10-01T05:16:49.602Z,97764.16
2022-10-01T05:19:17.859Z,97766.33
2022-10-01T05:21:46.467Z,97771.95
2022-10-01T05:24:14.493Z,97772.55
2022-10-01T05:26:42.901Z,97769.42
2022-10-01T05:29:11.393Z,97768.05
2022-10-01T05:31:42.185Z,97767.70
2022-10-01T05:34:10.867Z,97773.39
2022-10-01T05:36:38.888Z,97772.99
2022-10-01T05:39:06.880Z,97775.55
2022-10-01T05:41:35.375Z,97771.29
2022-10-01T05:44:04.225Z,97772.02
2022-10-01T05:46:32.857Z,97771.54
2022-10-01T05:49:00.831Z,97767.31
2022-10-01T05:51:29.645Z,97767.85
2022-10-01T05:53:59.679Z,97769.06
2022-10-01T05:56:28.488Z,97765.68
2022-10-01T05:58:56.990Z,97761.02
2022-10-01T06:01:25.115Z,97758.63
2022-10-01T06:03:53.449Z,97754.92
2022-10-01T06:06:26.279Z,97753.20
2022-10-01T06:08:54.952Z,97754.66
2022-10-01T06:11:24.375Z,97753.04
2022-10-01T06:13:52.663Z,97750.72
2022-10-01T06:16:21.062Z,97745.63
2022-10-01T06:18:49.869Z,97745.34
2022-10-01T06:21:17.809Z,97741.02
2022-10-01T06:23:49.628Z,97732.61
2022-10-01T06:26:18.615Z,97720.20
2022-10-01T06:28:51.238Z,97707.02
2022-10-01T06:31:20.034Z,97705.40
2022-10-01T06:33:48.402Z,97701.45
2022-10-01T06:36:16.627Z,97692.27
2022-10-01T06:38:45.178Z,97687.17
2022-10-01T06:41:14.274Z,97682.52
2022-10-01T06:43:42.122Z,97680.69
2022-10-01T06:46:11.328Z,97675.82
2022-10-01T06:48:39.447Z,97669.35
2022-10-01T06:51:08.686Z,97661.64
2022-10-01T06:53:36.921Z,97658.23
2022-10-01T06:56:07.151Z,97653.45
2022-10-01T06:58:35.357Z,97656.58
2022-10-01T07:01:04.088Z,97658.67
2022-10-01T07:03:32.580Z,97656.56
2022-10-01T07:06:03.033Z,97649.80
2022-10-01T07:08:31.232Z,97643.06
2022-10-01T07:11:02.975Z,97636.94
2022-10-01T07:13:31.098Z,97633.55
2022-10-01T07:15:59.173Z,97632.20
2022-10-01T07:18:27.212Z,97633.02
2022-10-01T07:20:59.683Z,97625.43
2022-10-01T07:23:27.803Z,97629.25
2022-10-01T07:25:56.101Z,97634.95
2022-10-01T07:28:26.406Z,97637.83
2022-10-01T07:31:11.653Z,97638.42
2022-10-01T07:33:41.449Z,97636.56
2022-10-01T07:36:12.027Z,97634.17
2022-10-01T07:38:40.203Z,97635.37
2022-10-01T07:41:08.285Z,97630.88
2022-10-01T07:43:36.742Z,97630.47
2022-10-01T07:46:05.781Z,97625.75
2022-10-01T07:48:33.977Z,97622.41
2022-10-01T07:51:02.176Z,97619.38
2022-10-01T07:53:30.304Z,97615.61
2022-10-01T07:56:02.659Z,97619.11
2022-10-01T07:58:30.977Z,97619.38
2022-10-01T08:01:03.969Z,97619.98
2022-10-01T08:03:32.194Z,97624.80
2022-10-01T08:06:00.261Z,97624.02
2022-10-01T08:08:28.510Z,97616.88
2022-10-01T08:10:57.100Z,97613.95
2022-10-01T08:13:25.717Z,97606.55
2022-10-01T08:15:55.074Z,97599.71
2022-10-01T08:18:24.350Z,97601.56
2022-10-01T08:20:52.793Z,97593.34
2022-10-01T08:23:21.802Z,97589.92
2022-10-01T08:25:50.698Z,97588.09
2022-10-01T08:28:19.920Z,97578.60
2022-10-01T08:30:48.669Z,97574.77
2022-10-01T08:33:17.682Z,97576.06
2022-10-01T08:35:46.002Z,97576.24
2022-10-01T08:38:14.863Z,97571.98
2022-10-01T08:40:52.168Z,97564.73
2022-10-01T08:43:23.655Z,97563.89
2022-10-01T08:46:00.815Z,97559.66
2022-10-01T08:49:05.875Z,97558.80
2022-10-01T08:51:47.214Z,97557.71
2022-10-01T08:54:26.518Z,97549.15
2022-10-01T08:56:58.271Z,97547.34
2022-10-01T08:59:40.893Z,97542.97
2022-10-01T09:02:20.051Z,97533.94
2022-10-01T09:04:51.287Z,97529.60
2022-10-01T09:07:51.897Z,97526.98
2022-10-01T09:10:36.149Z,97522.67
2022-10-01T09:13:16.222Z,97520.28
2022-10-01T09:16:13.638Z,97519.70
2022-10-01T09:19:10.972Z,97515.48
2022-10-01T09:21:56.888Z,97514.04
2022-10-01T09:24:44.684Z,97511.12
2022-10-01T09:27:19.161Z,97509.16
2022-10-01T09:30:01.297Z,97507.46
2022-10-01T09:32:37.335Z,97501.96
2022-10-01T09:35:31.737Z,97498.60
2022-10-01T09:38:18.547Z,97492.69
2022-10-01T09:40:53.130Z,97489.95
2022-10-01T09:43:33.306Z,97489.91
2022-10-01T09:46:04.971Z,97485.65
2022-10-01T09:48:44.289Z,97483.12
2022-10-01T09:51:19.290Z,97484.85
2022-10-01T09:54:05.496Z,97482.80
2022-10-01T09:56:44.792Z,97480.13
2022-10-01T09:59:20.924Z,97489.38
2022-10-01T10:01:53.876Z,97490.88
2022-10-01T10:04:24.258Z,97489.95
2022-10-01T10:07:05.419Z,97487.59
2022-10-01T10:09:36.244Z,97488.20
2022-10-01T10:12:10.063Z,97485.31
2022-10-01T10:14:42.625Z,97483.56
2022-10-01T10:17:19.397Z,97487.23
2022-10-01T10:19:51.846Z,97490.66
2022-10-01T10:22:25.125Z,97483.86
2022-10-01T10:24:58.078Z,97481.09
2022-10-01T10:27:29.318Z,97473.70
2022-10-01T10:30:14.730Z,97463.38
2022-10-01T10:32:44.929Z,97459.89
2022-10-01T10:35:19.842Z,97452.92
2022-10-01T10:37:54.220Z,97451.86
2022-10-01T10:40:29.889Z,97448.84
2022-10-01T10:42:59.831Z,97447.73
2022-10-01T10:45:36.777Z,97444.69
2022-10-01T10:48:12.043Z,97442.23
2022-10-01T10:50:43.279Z,97437.64
2022-10-01T10:53:19.995Z,97435.56
2022-10-01T10:56:02.056Z,97424.98
2022-10-01T10:58:33.609Z,97420.14
2022-10-01T11:01:28.146Z,97418.13
2022-10-01T11:04:01.643Z,97408.77
2022-10-01T11:06:30.662Z,97403.69
2022-10-01T11:09:07.761Z,97386.26
2022-10-01T11:11:47.776Z,97371.89
2022-10-01T11:14:46.482Z,97363.27
2022-10-01T11:17:35.018Z,97360.45
2022-10-01T11:20:25.422Z,97358.81
2022-10-01T11:23:30.795Z,97351.04
2022-10-01T11:26:18.232Z,97345.89
2022-10-01T11:29:01.479Z,97336.64
2022-10-01T11:31:43.718Z,97335.11
2022-10-01T11:34:30.538Z,97334.34
2022-10-01T11:37:24.431Z,97335.05
2022-10-01T11:39:57.227Z,97329.65
2022-10-01T11:42:35.156Z,97320.68
2022-10-01T11:45:25.881Z,97318.39
2022-10-01T11:48:00.785Z,97313.73
2022-10-01T11:50:39.067Z,97313.21
2022-10-01T11:53:25.274Z,97314.05
2022-10-01T11:56:49.320Z,97310.08
2022-10-01T11:59:50.062Z,97308.33
2022-10-01T12:02:51.372Z,97301.07
2022-10-01T12:05:25.211Z,97299.17
2022-10-01T12:08:21.715Z,97297.81
2022-10-01T12:11:18.045Z,97282.92
2022-10-01T12:13:55.440Z,97270.27
2022-10-01T12:16:45.601Z,97260.36
2022-10-01T12:19:21.782Z,97256.34
2022-10-01T12:22:46.100Z,97250.33
2022-10-01T12:25:15.376Z,97241.02
2022-10-01T12:27:54.740Z,97234.06
2022-10-01T12:30:29.600Z,97231.17
2022-10-01T12:33:22.697Z,97228.87
2022-10-01T12:36:29.168Z,97224.85
2022-10-01T12:39:24.101Z,97230.77
2022-10-01T12:42:07.099Z,97226.17
2022-10-01T12:44:39.227Z,97220.44
2022-10-01T12:47:47.498Z,97219.02
2022-10-01T12:50:49.438Z,97217.09
2022-10-01T12:53:28.693Z,97213.15
2022-10-01T12:56:12.061Z,97213.35
2022-10-01T12:58:55.195Z,97216.65
2022-10-01T13:01:50.100Z,97210.96
2022-10-01T13:04:24.253Z,97205.56
2022-10-01T13:07:19.687Z,97208.14
2022-10-01T13:10:09.994Z,97208.53
2022-10-01T13:13:02.085Z,97202.48
2022-10-01T13:15:38.176Z,97198.90
2022-10-01T13:18:27.763Z,97199.65
2022-10-01T13:21:20.055Z,97191.42
2022-10-01T13:23:57.677Z,97186.92
2022-10-01T13:26:54.107Z,97187.48
2022-10-01T13:29:51.246Z,97186.95
2022-10-01T13:32:51.492Z,97183.48
2022-10-01T13:35:32.852Z,97180.50
2022-10-01T13:38:29.491Z,97163.65
2022-10-01T13:41:04.879Z,97159.73
2022-10-01T13:43:35.231Z,97162.38
2022-10-01T13:46:11.533Z,97162.94
2022-10-01T13:48:49.020Z,97163.58
2022-10-01T13:51:17.637Z,97163.52
2022-10-01T13:54:09.642Z,97164.15
2022-10-01T13:56:38.790Z,97166.46
2022-10-01T13:59:35.162Z,97168.55
2022-10-01T14:02:30.660Z,97160.77
2022-10-01T14:05:23.376Z,97150.55
2022-10-01T14:07:59.616Z,97146.84
2022-10-01T14:10:57.300Z,97144.35
2022-10-01T14:13:47.145Z,97146.39
2022-10-01T14:16:17.104Z,97142.89
2022-10-01T14:18:49.726Z,97143.02
2022-10-01T14:21:28.880Z,97139.80
2022-10-01T14:24:14.933Z,97144.30
2022-10-01T14:27:34.290Z,97141.46
2022-10-01T14:30:20.834Z,97136.09
2022-10-01T14:33:21.413Z,97134.48
2022-10-01T14:36:04.714Z,97128.90
2022-10-01T14:38:33.530Z,97127.15
2022-10-01T14:41:02.205Z,97122.33
2022-10-01T14:43:32.983Z,97125.55
2022-10-01T14:46:07.481Z,97119.41
2022-10-01T14:48:40.944Z,97112.14
2022-10-01T14:51:31.905Z,97107.77
2022-10-01T14:54:01.093Z,97099.98
2022-10-01T14:56:29.977Z,97089.64
2022-10-01T14:59:05.887Z,97080.45
2022-10-01T15:01:34.943Z,97073.60
2022-10-01T15:04:15.015Z,97063.39
2022-10-01T15:06:44.342Z,97057.89
2022-10-01T15:09:15.678Z,97049.64
2022-10-01T15:11:47.799Z,97042.23
2022-10-01T15:14:24.005Z,97043.02
2022-10-01T15:16:52.847Z,97039.56
2022-10-01T15:19:23.415Z,97034.11
2022-10-01T15:21:55.519Z,97038.30
2022-10-01T15:24:40.550Z,97036.25
2022-10-01T15:27:11.437Z,97024.48
2022-10-01T15:29:42.985Z,97011.61
2022-10-01T15:32:18.665Z,97004.03
2022-10-01T15:34:56.103Z,96995.32
2022-10-01T15:37:35.229Z,96997.30
2022-10-01T15:40:07.279Z,96995.90
2022-10-01T15:42:36.687Z,97001.80
2022-10-01T15:45:07.723Z,97004.89
2022-10-01T15:47:37.950Z,96998.52
2022-10-01T15:50:09.172Z,96996.45
2022-10-01T15:53:06.818Z,96996.89
2022-10-01T15:55:49.805Z,96996.36
2022-10-01T15:58:31.830Z,96988.59
2022-10-01T16:01:12.437Z,96990.57
2022-10-01T16:03:55.179Z,96988.98
2022-10-01T16:06:29.481Z,96988.63
2022-10-01T16:09:06.620Z,96991.65
2022-10-01T16:11:57.245Z,96993.54
2022-10-01T16:14:41.063Z,96998.83
2022-10-01T16:17:18.687Z,97007.13
2022-10-01T16:19:53.387Z,97013.98
2022-10-01T16:22:21.525Z,97016.57
2022-10-01T16:24:52.872Z,97022.84
2022-10-01T16:27:34.664Z,97021.09
2022-10-01T16:30:12.597Z,97022.20
2022-10-01T16:32:41.250Z,97027.89
2022-10-01T16:35:21.877Z,97037.80
2022-10-01T16:37:53.130Z,97052.88
2022-10-01T16:40:25.522Z,97059.26
2022-10-01T16:42:54.687Z,97061.95
2022-10-01T16:45:25.478Z,97064.02
2022-10-01T16:47:56.921Z,97066.57
2022-10-01T16:50:25.968Z,97076.79
2022-10-01T16:52:56.365Z,97079.10
2022-10-01T16:55:37.962Z,97080.42
2022-10-01T16:58:07.216Z,97081.35
2022-10-01T17:00:37.711Z,97088.03
2022-10-01T17:03:09.490Z,97097.34
2022-10-01T17:05:38.067Z,97105.42
2022-10-01T17:08:11.542Z,97107.10
2022-10-01T17:10:44.230Z,97109.47
2022-10-01T17:13:14.259Z,97117.52
2022-10-01T17:15:43.581Z,97134.60
2022-10-01T17:18:12.367Z,97148.74
2022-10-01T17:20:40.662Z,97147.82
2022-10-01T17:23:12.494Z,97151.53
2022-10-01T17:25:41.562Z,97146.14
2022-10-01T17:28:16.066Z,97146.35
2022-10-01T17:30:46.719Z,97154.69
2022-10-01T17:33:16.801Z,97160.17
2022-10-01T17:35:51.845Z,97162.00
2022-10-01T17:38:21.165Z,97166.91
2022-10-01T17:40:55.703Z,97170.66
2022-10-01T17:43:25.277Z,97175.26
2022-10-01T17:46:01.411Z,97177.21
2022-10-01T17:48:30.504Z,97181.58
2022-10-01T17:51:07.489Z,97185.02
2022-10-01T17:53:42.303Z,97198.34
2022-10-01T17:56:17.115Z,97207.41
2022-10-01T17:58:46.323Z,97211.96
2022-10-01T18:01:20.048Z,97217.80
2022-10-01T18:03:56.275Z,97213.00
2022-10-01T18:06:28.035Z,97212.33
2022-10-01T18:08:57.234Z,97219.69
2022-10-01T18:11:30.490Z,97230.73
2022-10-01T18:14:00.470Z,97228.30
2022-10-01T18:16:29.238Z,97231.28
2022-10-01T18:21:48.696Z,97230.73
2022-10-01T18:24:17.840Z,97224.05
2022-10-01T18:26:45.991Z,97227.29
2022-10-01T18:29:24.337Z,97224.27
2022-10-01T18:32:02.643Z,97221.80
2022-10-01T18:34:39.820Z,97221.40
2022-10-01T18:37:23.387Z,97219.52
2022-10-01T18:40:15.421Z,97212.53
2022-10-01T18:42:49.646Z,97210.32
2022-10-01T18:45:43.420Z,97199.73
2022-10-01T18:48:17.626Z,97186.40
2022-10-01T18:50:55.173Z,97184.41
2022-10-01T18:53:23.467Z,97173.09
2022-10-01T18:56:02.767Z,97162.24
2022-10-01T18:58:43.483Z,97146.60
2022-10-01T19:01:41.926Z,97128.31
2022-10-01T19:04:40.727Z,97105.70
2022-10-01T19:07:43.790Z,97091.29
2022-10-01T19:10:31.491Z,97085.16
2022-10-01T19:13:12.043Z,97079.97
2022-10-01T19:15:59.903Z,97075.64
2022-10-01T19:18:55.220Z,97071.78
2022-10-01T19:21:33.629Z,97071.95
2022-10-01T19:24:01.876Z,97070.91
2022-10-01T19:26:47.038Z,97069.89
2022-10-01T19:29:21.613Z,97065.61
2022-10-01T19:32:03.207Z,97051.49
2022-10-01T19:34:35.155Z,97041.95
2022-10-01T19:37:29.836Z,97052.79
2022-10-01T19:40:05.656Z,97058.67
2022-10-01T19:42:39.983Z,97054.25
2022-10-01T19:45:30.843Z,97045.27
2022-10-01T19:48:16.101Z,97031.38
2022-10-01T19:50:51.173Z,97024.38
2022-10-01T19:53:30.873Z,97031.06
2022-10-01T19:56:01.512Z,97041.02
2022-10-01T19:58:30.806Z,97048.90
2022-10-01T20:01:02.702Z,97053.14
2022-10-01T20:03:30.661Z,97051.92
2022-10-01T20:06:10.516Z,97051.57
2022-10-01T20:08:53.014Z,97055.64
2022-10-01T20:11:32.006Z,97059.98
2022-10-01T20:14:41.179Z,97067.63
2022-10-01T20:17:48.388Z,97078.84
2022-10-01T20:20:25.599Z,97079.70
2022-10-01T20:23:12.008Z,97081.36
2022-10-01T20:25:58.168Z,97084.00
2022-10-01T20:29:04.700Z,97081.80
2022-10-01T20:32:09.912Z,97072.89
2022-10-01T20:34:59.098Z,97078.81
2022-10-01T20:37:38.854Z,97090.66
2022-10-01T20:40:18.408Z,97106.08
2022-10-01T20:42:50.906Z,97113.92
2022-10-01T20:45:23.949Z,97108.02
2022-10-01T20:48:01.518Z,97108.92
2022-10-01T20:50:39.982Z,97112.95
2022-10-01T20:53:25.020Z,97106.23
2022-10-01T20:56:01.737Z,97101.31
2022-10-01T20:58:35.054Z,97097.77
2022-10-01T21:01:17.214Z,97099.61
2022-10-01T21:04:07.790Z,97106.88
2022-10-01T21:06:42.521Z,97103.34
2022-10-01T21:09:21.101Z,97100.59
2022-10-01T21:11:59.262Z,97099.51
2022-10-01T21:14:35.762Z,97103.19
2022-10-01T21:17:19.689Z,97104.02
2022-10-01T21:20:15.615Z,97098.30
2022-10-01T21:23:14.183Z,97091.98
2022-10-01T21:25:57.192Z,97084.58
2022-10-01T21:28:37.275Z,97080.17
2022-10-01T21:31:23.889Z,97072.61
2022-10-01T21:34:09.557Z,97074.20
2022-10-01T21:36:38.841Z,97083.23
2022-10-01T21:39:41.449Z,97084.39
2022-10-01T21:42:12.209Z,97081.20
2022-10-01T21:45:08.003Z,97074.58
2022-10-01T21:47:54.701Z,97072.48
2022-10-01T21:50:51.749Z,97080.34
2022-10-01T21:53:50.536Z,97079.61
2022-10-01T21:56:38.754Z,97073.07
2022-10-01T21:59:22.339Z,97068.50
2022-10-01T22:02:14.968Z,97065.29
2022-10-01T22:05:23.644Z,97058.04
2022-10-01T22:07:58.538Z,97045.34
2022-10-01T22:10:33.715Z,97051.23
2022-10-01T22:13:03.625Z,97064.86
2022-10-01T22:15:41.990Z,97067.36
2022-10-01T22:18:35.739Z,97056.47
2022-10-01T22:21:20.854Z,97041.40
2022-10-01T22:23:58.125Z,97042.41
2022-10-01T22:26:31.726Z,97045.28
2022-10-01T22:29:02.180Z,97050.69
2022-10-01T22:31:35.897Z,97044.87
2022-10-01T22:34:15.476Z,97036.61
2022-10-01T22:37:08.669Z,97037.52
2022-10-01T22:39:42.664Z,97036.48
2022-10-01T22:42:24.389Z,97037.08
2022-10-01T22:44:53.255Z,97036.16
2022-10-01T22:47:38.212Z,97028.32
2022-10-01T22:50:20.143Z,97026.14
2022-10-01T22:53:37.857Z,97027.45
2022-10-01T22:56:06.742Z,97025.84
2022-10-01T22:59:10.326Z,97027.77
2022-10-01T23:01:44.081Z,97038.30
2022-10-01T23:04:15.265Z,97045.92
2022-10-01T23:06:58.166Z,97042.56
2022-10-01T23:09:29.030Z,97038.14
2022-10-01T23:12:20.076Z,97039.80
2022-10-01T23:15:14.996Z,97039.22
2022-10-01T23:17:59.614Z,97027.92
2022-10-01T23:20:32.572Z,97017.52
2022-10-01T23:23:10.930Z,97017.29
2022-10-01T23:25:59.434Z,97026.10
2022-10-01T23:28:36.459Z,97031.52
2022-10-01T23:31:36.814Z,97033.18
2022-10-01T23:34:22.675Z,97029.16
2022-10-01T23:37:10.935Z,97030.23
2022-10-01T23:40:13.448Z,97032.92
2022-10-01T23:42:48.939Z,97038.89
2022-10-01T23:45:26.344Z,97051.38
2022-10-01T23:48:23.542Z,97054.27
2022-10-01T23:51:02.398Z,97056.42
2022-10-01T23:54:08.889Z,97059.94
2022-10-01T23:56:50.208Z,97072.36
2022-10-01T23:59:39.355Z,97080.41
